Time;durP1;ratioP1;P1;durP2;ratioP2;P2;SDS_P1;SDS_P2;PMS_P1;PMS_P2;Temp;Humidity;BMP_temperature;BMP_pressure;BME280_temperature;BME280_humidity;BME280_pressure;Samples;Min_cycle;Max_cycle;Signal;HPM_P1;HPM_P2
2022/10/20 04:05:23;;;;;;;8.75;5.20;;;11.40;99.90;;;;;;5120028;23;20252;-68
2022/10/20 04:07:48;;;;;;;13.43;7.00;;;11.50;99.90;;;;;;4958009;29;20652;-68
2022/10/20 04:10:15;;;;;;;9.10;6.60;;;11.50;99.90;;;;;;4957930;29;20182;-68
2022/10/20 04:12:41;;;;;;;9.67;6.17;;;11.40;99.90;;;;;;4957413;29;20672;-68
2022/10/20 04:15:07;;;;;;;8.70;6.40;;;11.40;99.90;;;;;;4956968;28;20486;-69
2022/10/20 04:17:33;;;;;;;8.47;5.87;;;11.40;99.90;;;;;;4941889;29;20987;-68
2022/10/20 04:19:59;;;;;;;12.30;5.77;;;11.40;99.90;;;;;;4957755;29;20479;-69
2022/10/20 04:22:25;;;;;;;6.63;5.53;;;11.40;99.90;;;;;;4957684;29;20505;-69
2022/10/20 04:24:50;;;;;;;14.33;6.73;;;11.40;99.90;;;;;;4957605;29;20202;-68
2022/10/20 04:27:16;;;;;;;7.30;6.27;;;11.30;99.90;;;;;;4940952;29;20190;-68
2022/10/20 04:29:41;;;;;;;9.93;6.70;;;11.30;99.90;;;;;;4938510;29;20195;-68
2022/10/20 04:32:07;;;;;;;8.80;6.10;;;11.30;99.90;;;;;;4938171;29;20628;-68
2022/10/20 04:34:32;;;;;;;10.80;6.83;;;11.30;99.90;;;;;;4936768;29;20199;-68
2022/10/20 04:36:58;;;;;;;9.80;7.20;;;11.30;99.90;;;;;;4938295;29;20187;-68
2022/10/20 04:39:27;;;;;;;13.00;6.60;;;11.30;99.90;;;;;;4938148;29;20270;-68
2022/10/20 04:41:52;;;;;;;9.10;7.27;;;11.30;99.90;;;;;;4953019;29;20179;-68
2022/10/20 04:44:18;;;;;;;10.83;7.23;;;11.30;99.90;;;;;;4956758;29;20495;-68
2022/10/20 04:46:43;;;;;;;9.63;6.93;;;11.40;99.90;;;;;;4957288;29;20175;-67
2022/10/20 04:49:09;;;;;;;10.43;6.53;;;11.40;99.90;;;;;;4957395;29;20190;-67
2022/10/20 04:51:35;;;;;;;12.63;6.40;;;11.40;99.90;;;;;;4957043;29;20174;-68
2022/10/20 04:54:00;;;;;;;10.20;6.70;;;11.40;99.90;;;;;;4956776;29;20274;-68
2022/10/20 04:56:26;;;;;;;8.13;7.23;;;11.50;99.90;;;;;;4943171;29;20186;-69
2022/10/20 04:58:57;;;;;;;11.60;7.33;;;11.50;99.90;;;;;;4920718;29;20222;-68
2022/10/20 05:01:25;;;;;;;12.57;7.70;;;11.50;99.90;;;;;;4922455;29;20261;-68
2022/10/20 05:03:51;;;;;;;14.87;6.63;;;11.50;99.90;;;;;;4956437;29;20521;-68
2022/10/20 05:06:28;;;;;;;9.07;6.57;;;11.50;99.90;;;;;;4956759;29;20619;-68
2022/10/20 05:08:57;;;;;;;8.37;6.30;;;11.60;99.90;;;;;;4957037;29;20398;-68
2022/10/20 05:11:24;;;;;;;9.63;5.93;;;11.60;99.90;;;;;;4941123;29;20441;-68
2022/10/20 05:13:50;;;;;;;9.90;6.10;;;11.60;99.90;;;;;;4937203;29;20438;-69
2022/10/20 05:16:17;;;;;;;8.07;5.93;;;11.60;99.90;;;;;;4937577;29;20481;-69
2022/10/20 05:18:43;;;;;;;11.83;7.80;;;11.60;99.90;;;;;;4937528;29;20831;-68
2022/10/20 05:21:13;;;;;;;11.27;7.53;;;11.70;99.90;;;;;;4937407;29;20965;-70
2022/10/20 05:23:39;;;;;;;12.23;7.70;;;11.70;99.90;;;;;;4920056;29;20447;-66
2022/10/20 05:26:07;;;;;;;10.27;5.70;;;11.70;99.90;;;;;;4951234;28;20405;-69
2022/10/20 05:28:33;;;;;;;8.33;5.90;;;11.70;99.90;;;;;;4956452;29;20406;-69
2022/10/20 05:31:04;;;;;;;15.57;6.10;;;11.70;99.90;;;;;;4956302;29;20780;-68
2022/10/20 05:33:30;;;;;;;12.25;8.43;;;11.70;99.90;;;;;;4955775;29;20360;-70
2022/10/20 05:35:55;;;;;;;11.70;7.43;;;11.70;99.90;;;;;;4955300;29;20401;-70
2022/10/20 05:38:21;;;;;;;8.87;7.40;;;11.70;99.90;;;;;;4956498;29;20725;-73
2022/10/20 05:40:47;;;;;;;9.80;6.17;;;11.80;99.90;;;;;;4941243;29;20214;-71
2022/10/20 05:43:12;;;;;;;11.70;7.03;;;11.80;99.90;;;;;;4936412;29;21012;-68
2022/10/20 05:45:38;;;;;;;10.83;6.73;;;11.80;99.90;;;;;;4938056;29;20342;-68
2022/10/20 05:48:12;;;;;;;10.40;7.23;;;11.80;99.90;;;;;;5126931;27;20311;-69
2022/10/20 05:50:38;;;;;;;9.80;6.63;;;11.80;99.90;;;;;;5109680;28;20894;-69
2022/10/20 05:53:04;;;;;;;9.80;7.67;;;11.80;99.90;;;;;;5110010;28;20247;-72
2022/10/20 05:55:29;;;;;;;15.50;8.00;;;11.80;99.90;;;;;;5128902;28;20268;-70
2022/10/20 05:57:56;;;;;;;10.43;7.43;;;11.70;99.90;;;;;;5130904;28;20167;-71
2022/10/20 06:00:29;;;;;;;11.57;7.63;;;11.70;99.90;;;;;;5131635;28;20170;-69
2022/10/20 06:02:55;;;;;;;9.07;7.10;;;11.70;99.90;;;;;;5131148;27;20403;-70
2022/10/20 06:05:21;;;;;;;8.93;5.97;;;11.70;99.90;;;;;;5130015;28;20425;-70
2022/10/20 06:07:46;;;;;;;9.67;7.90;;;11.70;99.90;;;;;;5131083;28;20967;-71
2022/10/20 06:10:12;;;;;;;15.77;7.93;;;11.70;99.90;;;;;;5130822;28;20263;-71
2022/10/20 06:12:37;;;;;;;9.77;6.93;;;11.80;99.90;;;;;;5146984;27;20184;-72
2022/10/20 06:15:03;;;;;;;11.20;6.03;;;11.80;99.90;;;;;;5152223;27;20195;-71
2022/10/20 06:17:29;;;;;;;8.33;5.20;;;11.80;99.90;;;;;;5151796;27;20214;-72
2022/10/20 06:19:54;;;;;;;9.33;5.50;;;11.80;99.90;;;;;;5150595;27;20414;-71
2022/10/20 06:22:20;;;;;;;10.10;6.57;;;11.90;99.90;;;;;;5145857;27;20174;-75
2022/10/20 06:24:46;;;;;;;8.57;6.73;;;12.00;99.90;;;;;;5130686;28;20221;-69
2022/10/20 06:27:13;;;;;;;8.93;6.33;;;12.00;99.90;;;;;;5130637;27;20650;-68
2022/10/20 06:29:38;;;;;;;7.13;5.83;;;12.00;99.90;;;;;;5130901;27;20314;-69
2022/10/20 06:32:04;;;;;;;6.90;5.30;;;12.10;99.90;;;;;;5130737;28;20908;-68
2022/10/20 06:34:30;;;;;;;6.13;5.53;;;12.10;99.90;;;;;;5130348;28;20196;-69
2022/10/20 06:36:55;;;;;;;5.40;4.73;;;12.20;99.90;;;;;;5130364;28;20431;-68
2022/10/20 06:39:22;;;;;;;7.83;5.00;;;12.20;99.90;;;;;;5145635;27;20274;-68
2022/10/20 06:41:49;;;;;;;8.10;6.00;;;12.20;99.90;;;;;;5151185;27;20255;-69
2022/10/20 06:44:20;;;;;;;7.30;5.50;;;12.30;99.90;;;;;;5150792;27;20435;-69
2022/10/20 06:46:46;;;;;;;8.97;5.90;;;12.40;99.90;;;;;;5150419;27;20488;-69
2022/10/20 06:49:12;;;;;;;8.10;6.17;;;12.50;99.90;;;;;;5149005;27;20503;-76
2022/10/20 06:51:39;;;;;;;6.10;5.57;;;12.60;99.90;;;;;;5141854;27;20181;-69
2022/10/20 06:54:05;;;;;;;8.73;5.20;;;12.60;99.90;;;;;;5129915;27;20426;-71
2022/10/20 06:56:33;;;;;;;5.30;4.37;;;12.80;99.90;;;;;;5130156;28;20797;-70
2022/10/20 06:59:00;;;;;;;8.10;5.70;;;12.80;99.90;;;;;;5120018;27;20496;-69
2022/10/20 07:01:37;;;;;;;8.53;4.67;;;12.90;99.90;;;;;;5117638;27;20510;-69
2022/10/20 07:04:06;;;;;;;6.70;5.70;;;13.00;99.90;;;;;;5116150;27;21024;-69
2022/10/20 07:06:33;;;;;;;6.00;4.03;;;13.10;99.90;;;;;;5116064;28;20986;-72
2022/10/20 07:09:00;;;;;;;10.77;5.00;;;13.20;99.90;;;;;;5115993;28;20779;-67
2022/10/20 07:11:27;;;;;;;5.70;5.20;;;13.30;99.90;;;;;;5116161;28;20405;-70
2022/10/20 07:13:53;;;;;;;5.03;3.90;;;13.50;99.90;;;;;;5115592;28;20864;-69
2022/10/20 07:16:23;;;;;;;5.30;4.73;;;13.70;99.90;;;;;;5115586;28;20424;-69
2022/10/20 07:18:49;;;;;;;6.10;4.50;;;13.90;99.90;;;;;;5115797;28;20493;-69
2022/10/20 07:21:17;;;;;;;6.10;5.33;;;14.10;99.90;;;;;;5115737;28;20955;-70
2022/10/20 07:23:44;;;;;;;6.80;4.50;;;14.20;99.90;;;;;;5115102;28;20536;-71
2022/10/20 07:26:18;;;;;;;4.17;3.73;;;14.30;99.90;;;;;;5115598;28;20449;-70
2022/10/20 07:28:47;;;;;;;4.40;3.53;;;14.40;99.90;;;;;;5115969;28;20432;-69
2022/10/20 07:31:18;;;;;;;6.17;5.00;;;14.50;99.90;;;;;;5115775;28;20751;-68
2022/10/20 07:33:44;;;;;;;4.57;3.97;;;14.60;99.90;;;;;;5115439;27;20903;-68
2022/10/20 07:36:18;;;;;;;5.93;4.57;;;14.80;99.90;;;;;;5115772;28;20493;-68
2022/10/20 07:38:45;;;;;;;6.10;4.40;;;15.00;99.90;;;;;;5095107;28;20459;-68
2022/10/20 07:41:10;;;;;;;5.10;3.80;;;15.10;99.90;;;;;;5095278;28;20402;-69
2022/10/20 07:43:37;;;;;;;4.10;3.80;;;15.20;99.90;;;;;;5100036;28;20420;-69
2022/10/20 07:46:04;;;;;;;3.73;3.33;;;15.30;99.90;;;;;;5114812;28;20185;-65
2022/10/20 07:48:29;;;;;;;3.50;3.20;;;15.50;99.90;;;;;;5115435;28;20965;-66
2022/10/20 07:51:16;;;;;;;3.77;3.47;;;15.80;99.90;;;;;;5114298;28;20408;-66
2022/10/20 07:53:43;;;;;;;6.23;3.97;;;16.30;99.90;;;;;;5114899;28;20198;-65
2022/10/20 07:56:09;;;;;;;6.73;4.10;;;16.80;99.90;;;;;;5118778;27;20411;-66
2022/10/20 07:58:35;;;;;;;4.30;3.90;;;17.30;99.90;;;;;;5113703;28;20457;-66
2022/10/20 08:01:01;;;;;;;4.37;3.47;;;17.80;99.90;;;;;;5114530;28;20455;-66
2022/10/20 08:03:27;;;;;;;3.90;3.47;;;18.10;99.90;;;;;;5114947;28;20408;-67
2022/10/20 08:05:52;;;;;;;3.53;3.23;;;18.50;99.90;;;;;;5115054;28;20167;-66
2022/10/20 08:08:18;;;;;;;3.30;3.00;;;18.90;99.90;;;;;;5114641;28;20210;-66
2022/10/20 08:10:43;;;;;;;3.80;2.93;;;19.40;99.90;;;;;;5113688;28;20674;-67
2022/10/20 08:13:09;;;;;;;3.77;3.20;;;19.70;99.90;;;;;;5114770;28;20167;-67
2022/10/20 08:15:35;;;;;;;3.60;3.30;;;19.70;99.90;;;;;;5114822;28;20174;-67
2022/10/20 08:18:01;;;;;;;6.63;4.00;;;19.60;99.90;;;;;;5114713;28;20329;-66
2022/10/20 08:20:26;;;;;;;3.37;3.00;;;19.40;99.90;;;;;;5114646;28;20530;-67
2022/10/20 08:22:52;;;;;;;2.97;2.77;;;19.20;99.90;;;;;;5114237;28;20421;-68
2022/10/20 08:25:17;;;;;;;3.43;3.20;;;19.40;99.90;;;;;;5114940;28;20236;-66
2022/10/20 08:27:43;;;;;;;3.97;3.07;;;19.50;99.90;;;;;;5114222;28;20610;-68
2022/10/20 08:30:11;;;;;;;3.83;3.53;;;19.70;99.90;;;;;;5114957;28;20627;-71
2022/10/20 08:32:36;;;;;;;2.80;2.60;;;20.10;99.90;;;;;;5113595;27;20179;-65
2022/10/20 08:35:02;;;;;;;3.00;2.67;;;20.50;99.90;;;;;;5113795;28;20445;-67
2022/10/20 08:37:32;;;;;;;5.90;2.90;;;20.80;99.90;;;;;;5114664;28;20171;-67
2022/10/20 08:39:57;;;;;;;5.37;2.70;;;21.20;99.90;;;;;;5114598;28;20448;-68
2022/10/20 08:42:24;;;;;;;2.77;2.57;;;21.40;99.90;;;;;;5114348;28;20815;-73
2022/10/20 08:44:52;;;;;;;2.70;2.50;;;21.60;99.90;;;;;;5114385;28;20256;-76
2022/10/20 08:47:23;;;;;;;4.63;2.90;;;21.50;99.90;;;;;;5114276;28;20814;-74
2022/10/20 08:49:49;;;;;;;3.00;2.80;;;21.30;99.90;;;;;;5113148;28;20788;-74
2022/10/20 08:52:16;;;;;;;2.60;2.23;;;21.20;99.90;;;;;;5114556;28;20475;-74
2022/10/20 08:54:42;;;;;;;3.00;2.67;;;20.90;99.90;;;;;;5114870;27;20457;-68
2022/10/20 08:57:22;;;;;;;2.63;2.43;;;20.50;99.90;;;;;;5113815;28;20790;-67
2022/10/20 08:59:51;;;;;;;2.50;2.30;;;20.40;99.90;;;;;;5114188;28;20659;-66
2022/10/20 09:02:17;;;;;;;2.53;2.33;;;20.60;99.90;;;;;;5113640;28;20440;-66
2022/10/20 09:04:46;;;;;;;2.80;2.60;;;21.10;99.90;;;;;;5112829;28;20456;-67
2022/10/20 09:07:36;;;;;;;2.40;2.30;;;21.50;99.90;;;;;;5112576;28;20882;-67
2022/10/20 09:10:09;;;;;;;3.43;3.00;;;22.10;99.90;;;;;;5113941;28;20373;-67
2022/10/20 09:12:39;;;;;;;2.23;2.03;;;22.60;99.80;;;;;;5113361;28;20408;-67
2022/10/20 09:15:05;;;;;;;2.80;2.60;;;22.90;99.50;;;;;;5113515;28;20847;-67
2022/10/20 09:17:31;;;;;;;3.10;2.90;;;23.10;99.30;;;;;;5113882;28;20738;-73
2022/10/20 09:19:59;;;;;;;2.80;2.60;;;23.30;98.20;;;;;;5112514;28;20391;-73
2022/10/20 09:22:27;;;;;;;3.50;2.90;;;23.10;98.30;;;;;;5113338;28;20411;-77
2022/10/20 09:24:57;;;;;;;2.77;2.57;;;23.00;98.30;;;;;;5116082;28;20472;-75
2022/10/20 09:27:32;;;;;;;2.73;2.53;;;23.20;98.60;;;;;;5113831;28;20526;-77
2022/10/20 09:30:11;;;;;;;2.97;2.57;;;23.50;98.30;;;;;;5114514;28;20397;-75
2022/10/20 09:32:37;;;;;;;2.90;2.43;;;23.70;97.80;;;;;;5114018;28;20450;-75
2022/10/20 09:35:19;;;;;;;4.10;2.80;;;23.90;96.90;;;;;;5114343;28;20388;-75
2022/10/20 09:38:09;;;;;;;2.60;2.40;;;24.00;96.70;;;;;;5114298;28;20193;-76
2022/10/20 09:40:35;;;;;;;3.60;2.57;;;23.90;96.60;;;;;;5114905;28;20372;-74
2022/10/20 09:43:09;;;;;;;2.80;2.60;;;23.70;96.50;;;;;;5113024;28;20393;-69
2022/10/20 09:45:38;;;;;;;2.87;2.67;;;23.40;96.90;;;;;;5113622;28;20511;-69
2022/10/20 09:48:24;;;;;;;2.60;2.23;;;23.20;97.20;;;;;;5113502;28;20430;-69
2022/10/20 09:50:55;;;;;;;3.10;2.73;;;23.00;97.50;;;;;;5113377;28;20398;-68
2022/10/20 09:53:32;;;;;;;3.40;2.67;;;22.80;97.60;;;;;;5113150;28;20398;-68
2022/10/20 09:55:58;;;;;;;2.73;2.50;;;22.30;98.00;;;;;;5113232;28;20404;-69
2022/10/20 09:58:33;;;;;;;2.23;2.07;;;22.00;98.60;;;;;;5113399;28;20405;-69
2022/10/20 10:01:05;;;;;;;2.27;2.03;;;21.80;98.80;;;;;;5113634;28;20868;-70
2022/10/20 10:04:03;;;;;;;2.57;2.00;;;21.60;99.30;;;;;;5112704;28;20421;-70
2022/10/20 10:06:38;;;;;;;1.93;1.83;;;21.30;99.40;;;;;;5112940;28;20541;-67
2022/10/20 10:09:23;;;;;;;2.40;2.20;;;20.90;99.90;;;;;;5113412;28;20389;-70
2022/10/20 10:12:16;;;;;;;2.43;2.20;;;20.60;99.90;;;;;;5113384;28;20892;-70
2022/10/20 10:14:52;;;;;;;4.17;2.20;;;20.30;99.90;;;;;;5113148;28;20429;-71
2022/10/20 10:17:35;;;;;;;2.43;2.33;;;20.00;99.90;;;;;;5113628;28;20476;-69
2022/10/20 10:20:25;;;;;;;2.40;2.30;;;19.80;99.90;;;;;;5113460;28;20397;-69
2022/10/20 10:22:50;;;;;;;2.67;2.47;;;19.80;99.90;;;;;;5105027;28;20887;-70
2022/10/20 10:25:25;;;;;;;2.23;2.07;;;19.70;99.90;;;;;;5113472;28;20512;-69
2022/10/20 10:28:05;;;;;;;2.70;2.50;;;19.60;99.90;;;;;;5113255;28;20191;-70
2022/10/20 10:30:34;;;;;;;2.63;2.30;;;19.50;99.90;;;;;;5113333;28;20401;-70
2022/10/20 10:33:00;;;;;;;2.03;1.83;;;19.50;99.90;;;;;;5113656;28;20408;-70
2022/10/20 10:35:28;;;;;;;2.60;2.40;;;19.50;99.90;;;;;;5117024;28;20413;-69
2022/10/20 10:37:54;;;;;;;2.30;2.20;;;19.50;99.90;;;;;;5117124;28;20428;-69
2022/10/20 10:40:28;;;;;;;2.87;2.67;;;19.50;99.90;;;;;;5117123;28;20405;-69
2022/10/20 10:43:15;;;;;;;2.40;2.20;;;19.40;99.90;;;;;;5116735;28;20486;-69
2022/10/20 10:45:50;;;;;;;2.47;2.27;;;19.50;99.90;;;;;;5116755;28;20877;-71
2022/10/20 10:48:49;;;;;;;2.63;2.43;;;19.60;99.90;;;;;;5116680;28;20452;-69
2022/10/20 10:51:17;;;;;;;2.53;2.20;;;19.70;99.90;;;;;;5117011;28;20424;-70
2022/10/20 10:54:01;;;;;;;3.17;2.90;;;19.90;99.90;;;;;;5116251;28;20536;-69
2022/10/20 10:56:47;;;;;;;3.23;2.93;;;19.90;99.90;;;;;;5116808;28;20400;-68
2022/10/20 10:59:31;;;;;;;2.23;2.07;;;20.00;99.90;;;;;;5096355;28;20879;-70
2022/10/20 11:02:15;;;;;;;2.43;2.23;;;20.10;99.90;;;;;;5096260;28;20428;-70
2022/10/20 11:04:47;;;;;;;2.50;2.07;;;20.20;99.90;;;;;;5095369;28;20426;-70
2022/10/20 11:07:34;;;;;;;6.03;2.17;;;20.20;99.90;;;;;;5095832;28;20489;-70
2022/10/20 11:10:14;;;;;;;2.40;2.20;;;20.10;99.90;;;;;;5096074;28;20901;-70
2022/10/20 11:12:57;;;;;;;2.90;2.70;;;20.00;99.90;;;;;;5095531;28;20970;-70
2022/10/20 11:15:34;;;;;;;3.43;2.40;;;19.80;99.90;;;;;;5096089;28;20422;-69
2022/10/20 11:18:11;;;;;;;2.87;2.63;;;19.60;99.90;;;;;;5095841;28;20383;-67
2022/10/20 11:20:40;;;;;;;3.33;2.70;;;19.30;99.90;;;;;;5095983;28;20402;-68
2022/10/20 11:23:24;;;;;;;3.70;2.97;;;19.20;99.90;;;;;;5095306;28;20422;-70
2022/10/20 11:25:54;;;;;;;2.70;2.50;;;19.10;99.90;;;;;;5096401;28;20729;-69
2022/10/20 11:28:43;;;;;;;2.70;2.50;;;19.00;99.90;;;;;;5106366;28;20432;-70
2022/10/20 11:31:38;;;;;;;2.67;2.47;;;19.00;99.90;;;;;;5115827;28;20588;-71
2022/10/20 11:34:10;;;;;;;3.07;2.80;;;18.90;99.90;;;;;;5108848;28;20528;-69
2022/10/20 11:36:48;;;;;;;2.80;2.50;;;18.90;99.90;;;;;;5116059;28;20465;-70
2022/10/20 11:39:38;;;;;;;2.70;2.50;;;18.80;99.90;;;;;;5114636;28;20456;-70
2022/10/20 11:42:35;;;;;;;3.10;2.80;;;18.80;99.90;;;;;;5106453;28;20456;-70
2022/10/20 11:45:03;;;;;;;2.70;2.50;;;18.80;99.90;;;;;;5115549;28;20448;-68
2022/10/20 11:47:39;;;;;;;2.40;2.20;;;18.90;99.90;;;;;;5115559;28;20820;-70
2022/10/20 11:50:09;;;;;;;2.90;2.63;;;19.00;99.90;;;;;;5116218;28;20400;-70
2022/10/20 11:53:08;;;;;;;2.53;2.33;;;19.00;99.90;;;;;;5114473;28;20452;-69
2022/10/20 11:55:49;;;;;;;2.10;2.00;;;18.90;99.90;;;;;;5115752;28;20456;-70
2022/10/20 11:58:30;;;;;;;3.10;2.70;;;19.00;99.90;;;;;;5115470;27;20767;-69
2022/10/20 12:01:36;;;;;;;5.57;2.77;;;19.00;99.90;;;;;;5115493;28;20497;-69
2022/10/20 12:04:33;;;;;;;4.00;2.30;;;19.00;99.90;;;;;;5114297;28;20436;-69
2022/10/20 12:07:21;;;;;;;3.73;2.50;;;18.90;99.90;;;;;;5114434;28;20559;-69
2022/10/20 12:10:14;;;;;;;5.57;3.20;;;18.90;99.90;;;;;;5114997;28;20413;-69
2022/10/20 12:12:46;;;;;;;3.33;2.90;;;18.90;99.90;;;;;;5070970;28;20414;-70
2022/10/20 12:15:21;;;;;;;2.40;2.20;;;18.80;99.90;;;;;;5094621;28;20421;-69
2022/10/20 12:17:47;;;;;;;4.50;2.90;;;18.80;99.90;;;;;;5110039;28;20409;-69
2022/10/20 12:20:21;;;;;;;3.07;2.77;;;18.80;99.90;;;;;;5114882;28;20424;-69
2022/10/20 12:22:50;;;;;;;3.43;2.80;;;18.80;99.90;;;;;;5114950;28;20403;-69
2022/10/20 12:25:25;;;;;;;5.40;2.50;;;18.80;99.90;;;;;;5115288;28;20425;-68
2022/10/20 12:28:18;;;;;;;2.80;2.60;;;18.80;99.90;;;;;;5114893;28;20802;-67
2022/10/20 12:30:55;;;;;;;2.70;2.50;;;18.80;99.90;;;;;;5114806;28;20463;-67
2022/10/20 12:33:49;;;;;;;2.47;2.27;;;18.70;99.90;;;;;;5114426;28;20913;-67
2022/10/20 12:36:17;;;;;;;3.47;3.00;;;18.60;99.90;;;;;;5032241;28;20412;-69
2022/10/20 12:39:07;;;;;;;4.30;2.83;;;18.60;99.90;;;;;;5031841;28;20416;-67
2022/10/20 12:41:37;;;;;;;4.40;3.80;;;18.50;99.90;;;;;;5031582;28;20443;-68
2022/10/20 12:44:17;;;;;;;4.47;3.27;;;18.50;99.90;;;;;;5030670;28;20891;-70
2022/10/20 12:46:58;;;;;;;6.23;3.60;;;18.40;99.90;;;;;;5031567;28;20557;-70
2022/10/20 12:49:32;;;;;;;4.87;3.50;;;18.30;99.90;;;;;;5032198;28;20413;-70
2022/10/20 12:51:59;;;;;;;4.30;2.40;;;18.30;99.90;;;;;;5015131;28;20806;-70
2022/10/20 12:54:39;;;;;;;4.73;3.50;;;18.30;99.90;;;;;;5030934;28;20803;-69
2022/10/20 12:57:40;;;;;;;3.27;2.97;;;18.20;99.90;;;;;;5031396;28;20485;-69
2022/10/20 13:00:26;;;;;;;3.57;3.27;;;18.20;99.90;;;;;;5018049;28;20874;-68
2022/10/20 13:02:57;;;;;;;3.20;2.87;;;18.00;99.90;;;;;;5001579;28;20438;-69
2022/10/20 13:05:39;;;;;;;2.73;2.53;;;18.00;99.90;;;;;;5031415;28;20759;-69
2022/10/20 13:08:22;;;;;;;3.00;2.80;;;18.00;99.90;;;;;;5031855;28;20463;-69
2022/10/20 13:10:52;;;;;;;10.00;2.93;;;17.90;99.90;;;;;;5031696;28;20442;-70
2022/10/20 13:13:19;;;;;;;3.73;3.23;;;17.70;99.90;;;;;;5076141;27;20787;-67
2022/10/20 13:15:44;;;;;;;5.53;3.50;;;17.60;99.90;;;;;;5120296;27;20410;-69
2022/10/20 13:18:10;;;;;;;3.73;3.47;;;17.30;99.90;;;;;;5115527;27;20403;-69
2022/10/20 13:20:51;;;;;;;4.07;3.67;;;17.10;99.90;;;;;;5113483;28;20187;-70
2022/10/20 13:23:22;;;;;;;6.10;3.60;;;16.80;99.90;;;;;;5113625;28;20177;-69
2022/10/20 13:25:53;;;;;;;4.50;3.73;;;16.70;99.90;;;;;;5114099;28;20438;-68
2022/10/20 13:28:22;;;;;;;3.80;3.40;;;16.50;99.90;;;;;;5113803;28;20519;-70
2022/10/20 13:31:09;;;;;;;5.43;4.17;;;16.40;99.90;;;;;;5114035;28;20394;-68
2022/10/20 13:33:55;;;;;;;4.83;4.40;;;16.30;99.90;;;;;;5113513;28;20409;-67
2022/10/20 13:36:32;;;;;;;4.07;3.57;;;16.20;99.90;;;;;;5093677;28;20503;-67
2022/10/20 13:39:13;;;;;;;3.60;3.30;;;16.20;99.90;;;;;;5092210;28;20450;-68
2022/10/20 13:41:51;;;;;;;4.93;3.77;;;16.20;99.90;;;;;;5093631;28;20406;-66
2022/10/20 13:44:53;;;;;;;5.80;4.27;;;16.10;99.90;;;;;;5093108;28;20426;-67
2022/10/20 13:47:49;;;;;;;5.80;4.30;;;16.10;99.90;;;;;;5094261;28;20521;-70
2022/10/20 13:50:25;;;;;;;3.47;3.17;;;16.10;99.90;;;;;;5113351;28;20410;-68
2022/10/20 13:52:58;;;;;;;4.93;4.00;;;16.20;99.90;;;;;;5112932;27;20406;-68
2022/10/20 13:55:29;;;;;;;5.00;4.17;;;16.20;99.90;;;;;;5112400;28;20516;-70
2022/10/20 13:58:20;;;;;;;5.57;3.90;;;16.30;99.90;;;;;;5112742;28;20403;-70
2022/10/20 14:01:24;;;;;;;8.17;4.20;;;16.40;99.90;;;;;;5104162;28;20415;-70
2022/10/20 14:03:50;;;;;;;4.03;3.67;;;16.50;99.90;;;;;;5108716;28;20439;-70
2022/10/20 14:06:34;;;;;;;4.10;3.27;;;16.60;99.90;;;;;;5113215;28;20414;-69
2022/10/20 14:09:29;;;;;;;4.60;3.20;;;16.70;99.90;;;;;;5114915;28;20906;-69
2022/10/20 14:12:04;;;;;;;6.00;4.37;;;16.80;99.90;;;;;;5100361;28;20839;-69
2022/10/20 14:14:30;;;;;;;4.10;3.70;;;17.00;99.90;;;;;;5117314;28;20413;-68
2022/10/20 14:17:07;;;;;;;4.63;3.77;;;16.90;99.90;;;;;;5117369;28;20484;-69
2022/10/20 14:19:34;;;;;;;7.20;3.77;;;17.10;99.90;;;;;;5117427;28;20816;-69
2022/10/20 14:22:10;;;;;;;3.17;2.87;;;17.10;99.90;;;;;;5117392;28;20433;-68
2022/10/20 14:24:41;;;;;;;5.57;4.43;;;17.10;99.90;;;;;;5116273;28;20431;-69
2022/10/20 14:27:25;;;;;;;4.57;4.17;;;17.10;99.90;;;;;;5117507;28;20495;-70
2022/10/20 14:29:51;;;;;;;4.53;4.13;;;17.20;99.90;;;;;;5117477;28;20406;-71
2022/10/20 14:32:20;;;;;;;4.67;4.07;;;17.20;99.90;;;;;;5117290;28;20433;-71
2022/10/20 14:35:15;;;;;;;3.90;3.00;;;17.20;99.90;;;;;;5117102;28;20466;-70
2022/10/20 14:37:49;;;;;;;5.07;4.67;;;17.20;99.90;;;;;;5117221;28;20767;-69
2022/10/20 14:40:25;;;;;;;5.17;3.93;;;17.20;99.90;;;;;;5116533;28;20421;-68
2022/10/20 14:42:51;;;;;;;6.37;4.27;;;17.20;99.90;;;;;;5117009;28;20404;-70
2022/10/20 14:45:23;;;;;;;5.40;4.13;;;17.20;99.90;;;;;;5117086;28;20433;-68
2022/10/20 14:47:50;;;;;;;5.20;4.53;;;17.20;99.90;;;;;;5117296;28;20457;-68
2022/10/20 14:50:23;;;;;;;4.77;4.33;;;17.20;99.90;;;;;;5116870;28;20404;-69
2022/10/20 14:52:49;;;;;;;5.13;4.63;;;17.20;99.90;;;;;;5116509;28;20404;-69
2022/10/20 14:55:32;;;;;;;4.00;3.70;;;17.20;99.90;;;;;;5116767;28;20399;-72
2022/10/20 14:58:01;;;;;;;3.43;3.13;;;17.10;99.90;;;;;;5116833;28;20527;-69
2022/10/20 15:00:31;;;;;;;6.53;4.80;;;17.10;99.90;;;;;;5116881;28;20394;-72
2022/10/20 15:03:00;;;;;;;6.37;4.07;;;17.10;99.90;;;;;;5116175;28;20933;-71
2022/10/20 15:05:47;;;;;;;4.87;3.87;;;17.10;99.90;;;;;;5116467;28;20404;-71
2022/10/20 15:08:22;;;;;;;4.93;4.47;;;17.10;99.90;;;;;;5014145;28;20480;-70
2022/10/20 15:10:48;;;;;;;6.17;5.07;;;17.20;99.90;;;;;;5014238;28;20402;-71
2022/10/20 15:13:40;;;;;;;5.20;4.23;;;17.20;99.90;;;;;;5017717;28;20502;-69
2022/10/20 15:16:06;;;;;;;3.90;3.50;;;17.10;99.90;;;;;;5013929;28;20233;-70
2022/10/20 15:18:32;;;;;;;4.73;4.33;;;17.10;99.90;;;;;;5033346;28;20427;-72
2022/10/20 15:20:57;;;;;;;5.00;4.37;;;17.10;99.90;;;;;;5016700;28;20953;-74
2022/10/20 15:23:25;;;;;;;4.93;4.53;;;17.10;99.90;;;;;;5033276;28;20170;-69
2022/10/20 15:26:08;;;;;;;3.73;3.40;;;17.10;99.90;;;;;;5033607;28;20181;-69
2022/10/20 15:28:46;;;;;;;6.10;4.07;;;17.10;99.90;;;;;;5033699;28;20482;-67
2022/10/20 15:31:12;;;;;;;4.30;3.90;;;17.10;99.90;;;;;;5033573;28;20515;-72
2022/10/20 15:33:40;;;;;;;4.57;4.10;;;17.10;99.90;;;;;;5033097;28;20522;-70
2022/10/20 15:36:12;;;;;;;6.00;4.47;;;17.00;99.90;;;;;;5016583;28;20182;-70
2022/10/20 15:38:37;;;;;;;4.60;3.60;;;17.00;99.90;;;;;;5033436;28;20416;-71
2022/10/20 15:41:03;;;;;;;4.30;3.80;;;17.00;99.90;;;;;;5033250;28;20886;-69
2022/10/20 15:43:28;;;;;;;4.43;4.03;;;17.00;99.90;;;;;;5016198;28;20286;-67
2022/10/20 15:45:54;;;;;;;5.03;4.53;;;17.00;99.90;;;;;;5096288;28;20179;-69
2022/10/20 15:48:24;;;;;;;3.83;3.53;;;17.00;99.90;;;;;;5115856;28;20653;-68
2022/10/20 15:50:52;;;;;;;5.27;4.53;;;16.90;99.90;;;;;;5115754;28;20160;-68
2022/10/20 15:53:17;;;;;;;4.63;4.13;;;16.90;99.90;;;;;;5115323;28;20771;-69
2022/10/20 15:55:43;;;;;;;4.53;3.83;;;16.90;99.90;;;;;;5115659;28;20435;-70
2022/10/20 15:58:09;;;;;;;4.60;3.87;;;16.90;99.90;;;;;;5114213;28;20180;-68
2022/10/20 16:00:35;;;;;;;6.00;4.70;;;16.90;99.90;;;;;;5115815;28;20394;-69
2022/10/20 16:03:00;;;;;;;5.73;4.00;;;16.90;99.90;;;;;;5115014;28;20257;-68
2022/10/20 16:05:26;;;;;;;6.10;5.50;;;16.90;99.90;;;;;;5113895;28;20458;-69
2022/10/20 16:07:54;;;;;;;7.83;5.20;;;16.90;99.90;;;;;;5115381;27;20198;-69
2022/10/20 16:10:21;;;;;;;8.30;4.30;;;16.90;99.90;;;;;;5115495;28;20403;-70
2022/10/20 16:12:47;;;;;;;5.47;4.87;;;16.80;99.90;;;;;;5114998;28;20396;-72
2022/10/20 16:15:14;;;;;;;6.80;4.40;;;16.80;99.90;;;;;;5115117;28;20416;-73
2022/10/20 16:17:39;;;;;;;7.53;5.07;;;16.80;99.90;;;;;;5114819;28;20463;-67
2022/10/20 16:20:06;;;;;;;6.43;4.43;;;16.80;99.90;;;;;;5115190;28;20424;-69
2022/10/20 16:22:32;;;;;;;5.90;4.73;;;16.80;99.90;;;;;;5114814;28;20363;-70
2022/10/20 16:25:01;;;;;;;5.23;4.73;;;16.80;99.90;;;;;;5115247;28;20421;-71
2022/10/20 16:27:28;;;;;;;5.30;4.83;;;16.80;99.90;;;;;;5114497;28;20538;-70
2022/10/20 16:29:53;;;;;;;8.10;4.90;;;16.70;99.90;;;;;;5114874;28;20416;-69
2022/10/20 16:32:19;;;;;;;5.40;4.70;;;16.70;99.90;;;;;;5113950;28;20411;-71
2022/10/20 16:34:44;;;;;;;4.33;3.90;;;16.60;99.90;;;;;;5114459;28;20303;-69
2022/10/20 16:37:10;;;;;;;6.87;4.33;;;16.60;99.90;;;;;;5114868;28;20164;-70
2022/10/20 16:39:36;;;;;;;5.00;4.50;;;16.60;99.90;;;;;;5114705;28;20164;-70
2022/10/20 16:42:01;;;;;;;7.20;5.30;;;16.50;99.90;;;;;;5114434;28;20532;-71
2022/10/20 16:44:27;;;;;;;5.57;4.80;;;16.50;99.90;;;;;;5114372;28;20734;-70
2022/10/20 16:46:52;;;;;;;6.63;5.00;;;16.40;99.90;;;;;;5114046;28;20214;-65
2022/10/20 16:49:18;;;;;;;5.80;4.40;;;16.50;99.90;;;;;;5114279;28;20561;-70
2022/10/20 16:51:43;;;;;;;4.70;4.30;;;16.40;99.90;;;;;;5114433;28;20195;-69
2022/10/20 16:54:09;;;;;;;5.77;5.20;;;16.40;99.90;;;;;;5113543;28;20241;-72
2022/10/20 16:56:38;;;;;;;6.23;5.40;;;16.40;99.90;;;;;;5113057;28;20183;-69
2022/10/20 16:59:03;;;;;;;5.53;4.97;;;16.40;99.90;;;;;;5114497;28;20172;-71
2022/10/20 17:01:30;;;;;;;9.20;5.27;;;16.30;99.90;;;;;;5113784;28;20411;-75
2022/10/20 17:03:56;;;;;;;6.90;4.63;;;16.30;99.90;;;;;;5113839;28;20193;-73
2022/10/20 17:06:24;;;;;;;7.30;5.67;;;16.40;99.90;;;;;;5114269;28;20911;-73
2022/10/20 17:08:49;;;;;;;7.67;5.93;;;16.30;99.90;;;;;;5114344;28;20166;-74
2022/10/20 17:11:17;;;;;;;8.67;5.70;;;16.40;99.90;;;;;;5114311;28;20884;-73
2022/10/20 17:13:43;;;;;;;7.47;5.67;;;16.30;99.90;;;;;;5113888;28;20189;-73